createdAt,value
2023-03-24T00:01:28.627Z,17.07
2023-03-24T00:06:54.422Z,15.50
2023-03-24T00:12:19.046Z,14.42
2023-03-24T00:17:43.301Z,13.71
2023-03-24T00:23:08.605Z,13.15
2023-03-24T00:28:37.279Z,12.74
2023-03-24T00:34:03.166Z,12.45
2023-03-24T00:39:27.188Z,12.24
2023-03-24T00:44:54.213Z,13.08
2023-03-24T00:50:20.936Z,15.41
2023-03-24T00:55:48.512Z,16.63
2023-03-24T01:01:13.305Z,17.42
2023-03-24T01:06:38.208Z,17.93
2023-03-24T01:12:05.927Z,17.38
2023-03-24T01:17:30.023Z,15.61
2023-03-24T01:22:54.155Z,14.44
2023-03-24T01:28:24.796Z,13.76
2023-03-24T01:33:49.390Z,13.34
2023-03-24T01:39:13.101Z,13.07
2023-03-24T01:44:38.767Z,12.90
2023-03-24T01:50:05.545Z,12.77
2023-03-24T01:55:32.503Z,12.70
2023-03-24T02:00:58.463Z,13.64
2023-03-24T02:06:49.468Z,16.22
2023-03-24T02:12:14.468Z,17.49
2023-03-24T02:17:45.527Z,18.31
2023-03-24T02:23:35.009Z,18.13
2023-03-24T02:29:48.355Z,16.30
2023-03-24T02:35:36.148Z,14.91
2023-03-24T02:41:18.341Z,14.12
2023-03-24T02:46:50.163Z,13.57
2023-03-24T02:52:24.176Z,13.15
2023-03-24T02:58:01.032Z,12.87
2023-03-24T03:03:52.494Z,13.98
2023-03-24T03:09:21.847Z,16.17
2023-03-24T03:14:53.380Z,17.25
2023-03-24T03:20:23.526Z,17.93
2023-03-24T03:25:52.713Z,18.26
2023-03-24T03:31:24.095Z,17.82
2023-03-24T03:36:58.152Z,16.10
2023-03-24T03:42:23.881Z,14.94
2023-03-24T03:47:49.491Z,14.15
2023-03-24T03:53:17.760Z,13.65
2023-03-24T03:58:42.818Z,13.31
2023-03-24T04:04:30.259Z,14.12
2023-03-24T04:10:45.277Z,16.39
2023-03-24T04:16:23.432Z,17.25
2023-03-24T04:22:50.018Z,17.52
2023-03-24T04:28:16.044Z,15.84
2023-03-24T04:33:49.101Z,14.58
2023-03-24T04:39:18.530Z,13.83
2023-03-24T04:44:51.816Z,14.52
2023-03-24T04:50:46.070Z,16.48
2023-03-24T04:56:29.278Z,17.37
2023-03-24T05:02:07.787Z,17.58
2023-03-24T05:07:53.836Z,16.00
2023-03-24T05:13:19.377Z,14.78
2023-03-24T05:18:47.432Z,14.02
2023-03-24T05:24:12.952Z,14.48
2023-03-24T05:29:38.213Z,16.31
2023-03-24T05:35:04.407Z,17.25
2023-03-24T05:40:31.714Z,17.68
2023-03-24T05:46:08.176Z,17.89
2023-03-24T05:51:32.373Z,16.91
2023-03-24T05:57:02.627Z,15.33
2023-03-24T06:02:27.642Z,14.35
2023-03-24T06:07:58.934Z,14.81
2023-03-24T06:13:24.096Z,16.76
2023-03-24T06:18:52.874Z,17.63
2023-03-24T06:24:38.143Z,18.20
2023-03-24T06:30:07.226Z,18.57
2023-03-24T06:35:32.802Z,18.73
2023-03-24T06:41:03.152Z,18.05
2023-03-24T06:46:29.789Z,16.20
2023-03-24T06:51:54.652Z,14.90
2023-03-24T06:57:20.050Z,14.09
2023-03-24T07:03:04.269Z,14.73
2023-03-24T07:08:37.107Z,16.60
2023-03-24T07:14:09.906Z,17.68
2023-03-24T07:19:36.262Z,18.32
2023-03-24T07:25:20.434Z,18.86
2023-03-24T07:30:51.623Z,18.38
2023-03-24T07:36:19.427Z,16.83
2023-03-24T07:41:43.977Z,15.92
2023-03-24T07:47:29.150Z,15.35
2023-03-24T07:52:54.300Z,15.04
2023-03-24T07:58:19.051Z,15.93
2023-03-24T08:03:58.630Z,18.16
2023-03-24T08:09:44.108Z,19.47
2023-03-24T08:15:10.450Z,20.12
2023-03-24T08:25:59.014Z,18.30
2023-03-24T08:31:23.082Z,17.23
2023-03-24T08:36:47.788Z,16.55
2023-03-24T08:42:12.668Z,16.05
2023-03-24T08:47:37.709Z,16.16
2023-03-24T08:53:02.790Z,17.99
2023-03-24T08:58:27.363Z,17.76
2023-03-24T09:03:52.397Z,16.93
2023-03-24T09:09:16.836Z,16.58
2023-03-24T09:14:42.565Z,16.42
2023-03-24T09:20:12.166Z,16.35
2023-03-24T09:25:36.295Z,16.36
2023-03-24T09:31:03.197Z,16.48
2023-03-24T09:36:28.615Z,16.60
2023-03-24T09:41:56.478Z,16.80
2023-03-24T09:47:37.570Z,16.97
2023-03-24T09:53:23.166Z,17.12
2023-03-24T09:58:53.776Z,17.25
2023-03-24T10:04:21.656Z,17.43
2023-03-24T10:09:53.737Z,17.57
2023-03-24T10:15:37.108Z,17.65
2023-03-24T10:21:18.289Z,17.76
2023-03-24T10:26:55.724Z,17.94
2023-03-24T10:32:25.633Z,18.09
2023-03-24T10:37:52.728Z,18.15
2023-03-24T10:43:21.567Z,18.04
2023-03-24T10:48:48.637Z,17.82
2023-03-24T10:54:21.713Z,17.63
2023-03-24T10:59:58.270Z,17.47
2023-03-24T11:05:30.936Z,17.29
2023-03-24T11:10:56.709Z,17.15
2023-03-24T11:16:37.731Z,17.05
2023-03-24T11:22:06.109Z,17.03
2023-03-24T11:27:32.213Z,17.19
2023-03-24T11:32:58.745Z,18.74
2023-03-24T11:38:31.734Z,18.18
2023-03-24T11:44:23.073Z,17.51
2023-03-24T11:49:58.656Z,18.17
2023-03-24T11:55:42.734Z,18.92
2023-03-24T12:01:12.583Z,18.27
2023-03-24T12:06:57.317Z,18.01
2023-03-24T12:12:42.882Z,18.04
2023-03-24T12:18:16.268Z,18.05
2023-03-24T12:24:02.718Z,18.20
2023-03-24T12:29:54.870Z,18.54
2023-03-24T12:35:32.409Z,18.64
2023-03-24T12:41:25.300Z,18.53
2023-03-24T12:47:22.835Z,18.44
2023-03-24T12:58:43.362Z,18.27
2023-03-24T13:04:21.511Z,18.15
2023-03-24T13:09:46.842Z,18.15
2023-03-24T13:15:17.938Z,18.12
2023-03-24T13:20:49.987Z,18.09
2023-03-24T13:26:27.207Z,18.03
2023-03-24T13:32:24.603Z,17.93
2023-03-24T13:37:57.843Z,17.67
2023-03-24T13:43:30.041Z,17.44
2023-03-24T13:49:00.624Z,17.27
2023-03-24T13:54:28.058Z,17.30
2023-03-24T14:00:19.297Z,17.44
2023-03-24T14:06:00.096Z,17.57
2023-03-24T14:11:38.758Z,17.56
2023-03-24T14:17:07.081Z,17.49
2023-03-24T14:22:36.646Z,17.35
2023-03-24T14:28:18.200Z,17.17
2023-03-24T14:33:54.699Z,17.09
2023-03-24T14:39:28.549Z,17.07
2023-03-24T14:44:53.985Z,17.09
2023-03-24T14:50:22.880Z,17.08
2023-03-24T14:55:49.229Z,17.08
2023-03-24T15:01:15.072Z,17.03
2023-03-24T15:06:47.359Z,16.99
2023-03-24T15:12:11.884Z,16.99
2023-03-24T15:17:36.164Z,17.19
2023-03-24T15:23:09.284Z,17.40
2023-03-24T15:28:34.101Z,17.47
2023-03-24T15:34:25.581Z,17.43
2023-03-24T15:39:57.045Z,17.48
2023-03-24T15:45:51.033Z,17.52
2023-03-24T15:51:17.400Z,17.48
2023-03-24T15:56:42.799Z,17.31
2023-03-24T16:02:19.132Z,17.11
2023-03-24T16:07:43.587Z,16.35
2023-03-24T16:13:16.223Z,16.45
2023-03-24T16:18:46.600Z,16.28
2023-03-24T16:24:11.191Z,16.10
2023-03-24T16:29:37.380Z,16.05
2023-03-24T16:35:03.233Z,15.96
2023-03-24T16:40:36.677Z,15.85
2023-03-24T16:46:01.895Z,15.85
2023-03-24T16:51:27.588Z,15.85
2023-03-24T16:56:52.023Z,15.88
2023-03-24T17:02:19.927Z,15.98
2023-03-24T17:07:44.843Z,16.07
2023-03-24T17:13:08.922Z,16.33
2023-03-24T17:18:33.612Z,16.76
2023-03-24T17:23:57.598Z,17.10
2023-03-24T17:29:23.151Z,17.27
2023-03-24T17:34:48.422Z,17.29
2023-03-24T17:40:15.839Z,16.52
2023-03-24T17:45:43.337Z,14.45
2023-03-24T17:51:07.797Z,13.78
2023-03-24T17:56:32.527Z,15.02
2023-03-24T18:01:56.322Z,15.51
2023-03-24T18:07:21.400Z,15.92
2023-03-24T18:12:46.604Z,16.29
2023-03-24T18:18:10.866Z,16.33
2023-03-24T18:23:37.228Z,16.25
2023-03-24T18:29:01.424Z,16.14
2023-03-24T18:34:26.964Z,15.86
2023-03-24T18:39:51.975Z,15.73
2023-03-24T18:45:19.919Z,15.84
2023-03-24T18:50:44.189Z,15.90
2023-03-24T18:56:09.127Z,15.83
2023-03-24T19:01:33.584Z,15.65
2023-03-24T19:06:57.849Z,15.59
2023-03-24T19:12:22.808Z,15.43
2023-03-24T19:17:47.992Z,15.18
2023-03-24T19:23:33.580Z,14.96
2023-03-24T19:29:04.108Z,14.91
2023-03-24T19:34:28.744Z,14.83
2023-03-24T19:39:54.512Z,14.78
2023-03-24T19:45:21.288Z,14.71
2023-03-24T19:50:47.014Z,14.64
2023-03-24T19:56:13.509Z,14.65
2023-03-24T20:01:38.577Z,14.56
2023-03-24T20:07:03.761Z,14.53
2023-03-24T20:12:28.244Z,14.16
2023-03-24T20:17:56.501Z,12.83
2023-03-24T20:23:22.717Z,13.65
2023-03-24T20:28:48.403Z,14.03
2023-03-24T20:34:12.434Z,14.21
2023-03-24T20:39:36.833Z,13.90
2023-03-24T20:45:01.370Z,12.49
2023-03-24T20:50:28.335Z,13.29
2023-03-24T20:56:07.080Z,13.86
2023-03-24T21:01:36.485Z,14.03
2023-03-24T21:07:01.520Z,13.64
2023-03-24T21:12:25.954Z,12.34
2023-03-24T21:17:51.000Z,13.18
2023-03-24T21:23:19.211Z,13.75
2023-03-24T21:28:44.900Z,13.90
2023-03-24T21:34:09.438Z,13.50
2023-03-24T21:39:34.015Z,12.14
2023-03-24T21:44:58.174Z,12.87
2023-03-24T21:50:26.081Z,13.42
2023-03-24T21:56:05.281Z,13.59
2023-03-24T22:01:31.387Z,13.66
2023-03-24T22:06:56.725Z,13.74
2023-03-24T22:12:21.103Z,12.57
2023-03-24T22:17:45.425Z,12.40
2023-03-24T22:23:09.918Z,13.27
2023-03-24T22:28:36.568Z,13.65
2023-03-24T22:34:01.572Z,13.21
2023-03-24T22:39:26.354Z,12.11
2023-03-24T22:44:50.516Z,13.15
2023-03-24T22:50:14.837Z,13.57
2023-03-24T22:55:39.628Z,12.22
2023-03-24T23:01:06.698Z,12.01
2023-03-24T23:06:31.401Z,13.12
2023-03-24T23:11:55.514Z,13.26
2023-03-24T23:17:19.852Z,11.84
2023-03-24T23:22:43.566Z,12.55
2023-03-24T23:28:07.864Z,13.38
2023-03-24T23:33:33.430Z,12.57
2023-03-24T23:38:57.944Z,11.97
2023-03-24T23:44:21.849Z,13.11
2023-03-24T23:49:45.909Z,12.96
2023-03-24T23:55:13.473Z,11.42
